sensor_id;sensor_type;location;lat;lon;timestamp;P1;durP1;ratioP1;P2;durP2;ratioP2
64543;SDS011;50936;51.660;5.616;2023-04-05T00:00:35;16.35;;;5.97;;
64543;SDS011;50936;51.660;5.616;2023-04-05T00:03:03;13.60;;;5.60;;
64543;SDS011;50936;51.660;5.616;2023-04-05T00:05:31;11.05;;;5.60;;
64543;SDS011;50936;51.660;5.616;2023-04-05T00:08:00;16.30;;;5.70;;
64543;SDS011;50936;51.660;5.616;2023-04-05T00:10:28;11.80;;;6.22;;
64543;SDS011;50936;51.660;5.616;2023-04-05T00:12:56;14.48;;;6.05;;
64543;SDS011;50936;51.660;5.616;2023-04-05T00:15:24;14.52;;;5.70;;
64543;SDS011;50936;51.660;5.616;2023-04-05T00:17:53;11.95;;;5.97;;
64543;SDS011;50936;51.660;5.616;2023-04-05T00:20:21;11.52;;;5.70;;
64543;SDS011;50936;51.660;5.616;2023-04-05T00:22:48;14.90;;;5.53;;
64543;SDS011;50936;51.660;5.616;2023-04-05T00:25:16;15.32;;;5.97;;
64543;SDS011;50936;51.660;5.616;2023-04-05T00:27:43;12.38;;;5.85;;
64543;SDS011;50936;51.660;5.616;2023-04-05T00:30:11;12.20;;;5.35;;
64543;SDS011;50936;51.660;5.616;2023-04-05T00:32:47;11.43;;;5.70;;
64543;SDS011;50936;51.660;5.616;2023-04-05T00:35:15;10.90;;;5.20;;
64543;SDS011;50936;51.660;5.616;2023-04-05T00:37:42;10.90;;;5.25;;
64543;SDS011;50936;51.660;5.616;2023-04-05T00:40:09;11.80;;;5.78;;
64543;SDS011;50936;51.660;5.616;2023-04-05T00:42:37;11.23;;;5.03;;
64543;SDS011;50936;51.660;5.616;2023-04-05T00:45:04;12.35;;;5.50;;
64543;SDS011;50936;51.660;5.616;2023-04-05T00:47:31;10.00;;;6.03;;
64543;SDS011;50936;51.660;5.616;2023-04-05T00:49:58;10.60;;;5.28;;
64543;SDS011;50936;51.660;5.616;2023-04-05T00:52:26;13.65;;;5.72;;
64543;SDS011;50936;51.660;5.616;2023-04-05T00:54:56;12.82;;;5.30;;
64543;SDS011;50936;51.660;5.616;2023-04-05T00:57:24;13.93;;;5.50;;
64543;SDS011;50936;51.660;5.616;2023-04-05T00:59:51;11.18;;;5.60;;
64543;SDS011;50936;51.660;5.616;2023-04-05T01:02:21;11.38;;;5.18;;
64543;SDS011;50936;51.660;5.616;2023-04-05T01:05:20;12.60;;;5.45;;
64543;SDS011;50936;51.660;5.616;2023-04-05T01:08:13;11.70;;;5.25;;
64543;SDS011;50936;51.660;5.616;2023-04-05T01:10:49;14.15;;;5.28;;
64543;SDS011;50936;51.660;5.616;2023-04-05T01:13:24;11.02;;;5.10;;
64543;SDS011;50936;51.660;5.616;2023-04-05T01:15:51;10.15;;;5.18;;
64543;SDS011;50936;51.660;5.616;2023-04-05T01:18:18;11.90;;;5.63;;
64543;SDS011;50936;51.660;5.616;2023-04-05T01:21:16;12.63;;;5.88;;
64543;SDS011;50936;51.660;5.616;2023-04-05T01:27:48;12.35;;;5.35;;
64543;SDS011;50936;51.660;5.616;2023-04-05T01:30:38;11.38;;;6.03;;
64543;SDS011;50936;51.660;5.616;2023-04-05T01:33:16;9.95;;;5.30;;
64543;SDS011;50936;51.660;5.616;2023-04-05T01:38:34;13.05;;;5.75;;
64543;SDS011;50936;51.660;5.616;2023-04-05T01:41:05;10.30;;;5.35;;
64543;SDS011;50936;51.660;5.616;2023-04-05T01:43:32;12.45;;;5.30;;
64543;SDS011;50936;51.660;5.616;2023-04-05T01:46:00;13.05;;;6.20;;
64543;SDS011;50936;51.660;5.616;2023-04-05T01:48:29;13.43;;;5.38;;
64543;SDS011;50936;51.660;5.616;2023-04-05T01:50:58;12.40;;;5.70;;
64543;SDS011;50936;51.660;5.616;2023-04-05T01:53:24;11.43;;;5.57;;
64543;SDS011;50936;51.660;5.616;2023-04-05T01:55:51;13.10;;;6.45;;
64543;SDS011;50936;51.660;5.616;2023-04-05T01:58:18;14.40;;;6.13;;
64543;SDS011;50936;51.660;5.616;2023-04-05T02:00:45;11.85;;;5.72;;
64543;SDS011;50936;51.660;5.616;2023-04-05T02:03:12;15.20;;;6.25;;
64543;SDS011;50936;51.660;5.616;2023-04-05T02:05:40;13.13;;;6.55;;
64543;SDS011;50936;51.660;5.616;2023-04-05T02:08:08;14.40;;;6.43;;
64543;SDS011;50936;51.660;5.616;2023-04-05T02:10:35;12.70;;;5.90;;
64543;SDS011;50936;51.660;5.616;2023-04-05T02:13:02;11.75;;;5.90;;
64543;SDS011;50936;51.660;5.616;2023-04-05T02:15:29;13.30;;;5.90;;
64543;SDS011;50936;51.660;5.616;2023-04-05T02:17:56;14.13;;;6.15;;
64543;SDS011;50936;51.660;5.616;2023-04-05T02:20:27;12.50;;;6.43;;
64543;SDS011;50936;51.660;5.616;2023-04-05T02:22:55;14.73;;;6.40;;
64543;SDS011;50936;51.660;5.616;2023-04-05T02:25:23;16.15;;;6.45;;
64543;SDS011;50936;51.660;5.616;2023-04-05T02:27:51;12.73;;;6.07;;
64543;SDS011;50936;51.660;5.616;2023-04-05T02:30:19;12.48;;;6.30;;
64543;SDS011;50936;51.660;5.616;2023-04-05T02:32:47;13.52;;;6.80;;
64543;SDS011;50936;51.660;5.616;2023-04-05T02:35:14;15.18;;;6.43;;
64543;SDS011;50936;51.660;5.616;2023-04-05T02:37:42;12.35;;;5.80;;
64543;SDS011;50936;51.660;5.616;2023-04-05T02:40:11;14.43;;;6.70;;
64543;SDS011;50936;51.660;5.616;2023-04-05T02:42:40;13.10;;;6.20;;
64543;SDS011;50936;51.660;5.616;2023-04-05T02:45:07;11.43;;;6.00;;
64543;SDS011;50936;51.660;5.616;2023-04-05T02:47:34;13.68;;;6.55;;
64543;SDS011;50936;51.660;5.616;2023-04-05T02:50:02;16.95;;;7.40;;
64543;SDS011;50936;51.660;5.616;2023-04-05T02:52:33;14.68;;;6.38;;
64543;SDS011;50936;51.660;5.616;2023-04-05T02:55:04;12.52;;;6.20;;
64543;SDS011;50936;51.660;5.616;2023-04-05T02:57:33;13.38;;;6.50;;
64543;SDS011;50936;51.660;5.616;2023-04-05T03:00:07;13.95;;;6.53;;
64543;SDS011;50936;51.660;5.616;2023-04-05T03:02:36;14.20;;;7.13;;
64543;SDS011;50936;51.660;5.616;2023-04-05T03:05:05;16.90;;;7.05;;
64543;SDS011;50936;51.660;5.616;2023-04-05T03:07:34;17.77;;;7.97;;
64543;SDS011;50936;51.660;5.616;2023-04-05T03:10:05;14.43;;;6.72;;
64543;SDS011;50936;51.660;5.616;2023-04-05T03:12:35;15.23;;;6.70;;
64543;SDS011;50936;51.660;5.616;2023-04-05T03:15:02;15.07;;;7.10;;
64543;SDS011;50936;51.660;5.616;2023-04-05T03:17:36;12.88;;;6.22;;
64543;SDS011;50936;51.660;5.616;2023-04-05T03:20:04;14.48;;;7.05;;
64543;SDS011;50936;51.660;5.616;2023-04-05T03:22:32;13.82;;;6.13;;
64543;SDS011;50936;51.660;5.616;2023-04-05T03:25:01;14.40;;;6.50;;
64543;SDS011;50936;51.660;5.616;2023-04-05T03:27:30;12.95;;;6.63;;
64543;SDS011;50936;51.660;5.616;2023-04-05T03:30:07;14.40;;;7.07;;
64543;SDS011;50936;51.660;5.616;2023-04-05T03:32:40;15.10;;;6.78;;
64543;SDS011;50936;51.660;5.616;2023-04-05T03:35:20;17.20;;;6.85;;
64543;SDS011;50936;51.660;5.616;2023-04-05T03:37:47;15.43;;;6.55;;
64543;SDS011;50936;51.660;5.616;2023-04-05T03:40:14;14.15;;;6.80;;
64543;SDS011;50936;51.660;5.616;2023-04-05T03:42:41;16.65;;;7.28;;
64543;SDS011;50936;51.660;5.616;2023-04-05T03:45:09;16.92;;;6.97;;
64543;SDS011;50936;51.660;5.616;2023-04-05T03:47:37;17.25;;;6.95;;
64543;SDS011;50936;51.660;5.616;2023-04-05T03:50:06;16.42;;;7.30;;
64543;SDS011;50936;51.660;5.616;2023-04-05T03:52:33;15.75;;;7.65;;
64543;SDS011;50936;51.660;5.616;2023-04-05T03:55:01;16.75;;;7.32;;
64543;SDS011;50936;51.660;5.616;2023-04-05T03:57:32;16.17;;;7.45;;
64543;SDS011;50936;51.660;5.616;2023-04-05T04:00:08;14.70;;;7.03;;
64543;SDS011;50936;51.660;5.616;2023-04-05T04:02:43;14.32;;;7.20;;
64543;SDS011;50936;51.660;5.616;2023-04-05T04:05:18;15.68;;;6.90;;
64543;SDS011;50936;51.660;5.616;2023-04-05T04:07:51;18.30;;;7.80;;
64543;SDS011;50936;51.660;5.616;2023-04-05T04:10:20;15.70;;;7.65;;
64543;SDS011;50936;51.660;5.616;2023-04-05T04:12:50;16.17;;;7.45;;
64543;SDS011;50936;51.660;5.616;2023-04-05T04:15:23;17.13;;;7.88;;
64543;SDS011;50936;51.660;5.616;2023-04-05T04:18:19;16.13;;;7.47;;
64543;SDS011;50936;51.660;5.616;2023-04-05T04:21:05;16.15;;;8.05;;
64543;SDS011;50936;51.660;5.616;2023-04-05T04:23:51;17.35;;;7.78;;
64543;SDS011;50936;51.660;5.616;2023-04-05T04:26:38;13.93;;;7.60;;
64543;SDS011;50936;51.660;5.616;2023-04-05T04:29:24;14.07;;;7.38;;
64543;SDS011;50936;51.660;5.616;2023-04-05T04:32:15;15.95;;;7.60;;
64543;SDS011;50936;51.660;5.616;2023-04-05T04:35:26;14.52;;;7.35;;
64543;SDS011;50936;51.660;5.616;2023-04-05T04:38:11;15.40;;;7.68;;
64543;SDS011;50936;51.660;5.616;2023-04-05T04:41:05;14.93;;;7.22;;
64543;SDS011;50936;51.660;5.616;2023-04-05T04:43:42;16.25;;;8.15;;
64543;SDS011;50936;51.660;5.616;2023-04-05T04:46:38;15.40;;;7.25;;
64543;SDS011;50936;51.660;5.616;2023-04-05T04:49:27;14.25;;;7.57;;
64543;SDS011;50936;51.660;5.616;2023-04-05T04:51:55;15.18;;;8.25;;
64543;SDS011;50936;51.660;5.616;2023-04-05T04:54:24;19.08;;;8.10;;
64543;SDS011;50936;51.660;5.616;2023-04-05T04:56:54;18.52;;;7.57;;
64543;SDS011;50936;51.660;5.616;2023-04-05T04:59:21;16.48;;;7.32;;
64543;SDS011;50936;51.660;5.616;2023-04-05T05:01:48;16.58;;;8.05;;
64543;SDS011;50936;51.660;5.616;2023-04-05T05:04:15;20.02;;;8.07;;
64543;SDS011;50936;51.660;5.616;2023-04-05T05:06:43;18.63;;;7.38;;
64543;SDS011;50936;51.660;5.616;2023-04-05T05:09:10;17.52;;;8.40;;
64543;SDS011;50936;51.660;5.616;2023-04-05T05:11:47;14.80;;;7.70;;
64543;SDS011;50936;51.660;5.616;2023-04-05T05:14:14;17.30;;;8.60;;
64543;SDS011;50936;51.660;5.616;2023-04-05T05:16:41;18.05;;;8.23;;
64543;SDS011;50936;51.660;5.616;2023-04-05T05:19:08;18.13;;;8.85;;
64543;SDS011;50936;51.660;5.616;2023-04-05T05:21:43;19.67;;;8.55;;
64543;SDS011;50936;51.660;5.616;2023-04-05T05:24:09;18.73;;;8.60;;
64543;SDS011;50936;51.660;5.616;2023-04-05T05:26:36;16.95;;;8.05;;
64543;SDS011;50936;51.660;5.616;2023-04-05T05:29:03;16.85;;;8.75;;
64543;SDS011;50936;51.660;5.616;2023-04-05T05:31:33;17.20;;;8.43;;
64543;SDS011;50936;51.660;5.616;2023-04-05T05:34:00;16.38;;;7.68;;
64543;SDS011;50936;51.660;5.616;2023-04-05T05:36:33;15.15;;;8.27;;
64543;SDS011;50936;51.660;5.616;2023-04-05T05:39:01;15.68;;;8.45;;
64543;SDS011;50936;51.660;5.616;2023-04-05T05:41:30;18.00;;;8.55;;
64543;SDS011;50936;51.660;5.616;2023-04-05T05:43:57;15.20;;;8.05;;
64543;SDS011;50936;51.660;5.616;2023-04-05T05:46:24;17.88;;;7.97;;
64543;SDS011;50936;51.660;5.616;2023-04-05T05:48:52;15.65;;;7.85;;
64543;SDS011;50936;51.660;5.616;2023-04-05T05:51:19;19.98;;;8.15;;
64543;SDS011;50936;51.660;5.616;2023-04-05T05:53:46;17.95;;;8.95;;
64543;SDS011;50936;51.660;5.616;2023-04-05T05:56:13;15.80;;;8.45;;
64543;SDS011;50936;51.660;5.616;2023-04-05T05:58:40;23.67;;;8.82;;
64543;SDS011;50936;51.660;5.616;2023-04-05T06:01:07;17.10;;;7.97;;
64543;SDS011;50936;51.660;5.616;2023-04-05T06:03:34;18.35;;;8.90;;
64543;SDS011;50936;51.660;5.616;2023-04-05T06:06:01;16.70;;;7.75;;
64543;SDS011;50936;51.660;5.616;2023-04-05T06:08:31;17.98;;;8.45;;
64543;SDS011;50936;51.660;5.616;2023-04-05T06:10:58;18.98;;;8.63;;
64543;SDS011;50936;51.660;5.616;2023-04-05T06:13:26;15.23;;;8.07;;
64543;SDS011;50936;51.660;5.616;2023-04-05T06:15:53;17.70;;;8.18;;
64543;SDS011;50936;51.660;5.616;2023-04-05T06:18:20;17.13;;;8.10;;
64543;SDS011;50936;51.660;5.616;2023-04-05T06:20:47;17.25;;;8.10;;
64543;SDS011;50936;51.660;5.616;2023-04-05T06:23:14;19.15;;;8.60;;
64543;SDS011;50936;51.660;5.616;2023-04-05T06:25:41;18.60;;;8.73;;
64543;SDS011;50936;51.660;5.616;2023-04-05T06:28:08;18.38;;;8.43;;
64543;SDS011;50936;51.660;5.616;2023-04-05T06:30:35;17.73;;;8.35;;
64543;SDS011;50936;51.660;5.616;2023-04-05T06:33:02;18.35;;;8.00;;
64543;SDS011;50936;51.660;5.616;2023-04-05T06:35:29;16.42;;;7.75;;
64543;SDS011;50936;51.660;5.616;2023-04-05T06:37:57;15.07;;;7.47;;
64543;SDS011;50936;51.660;5.616;2023-04-05T06:40:24;16.33;;;8.48;;
64543;SDS011;50936;51.660;5.616;2023-04-05T06:42:51;17.95;;;8.32;;
64543;SDS011;50936;51.660;5.616;2023-04-05T06:45:22;14.82;;;7.80;;
64543;SDS011;50936;51.660;5.616;2023-04-05T06:47:49;17.73;;;8.98;;
64543;SDS011;50936;51.660;5.616;2023-04-05T06:50:16;15.45;;;8.90;;
64543;SDS011;50936;51.660;5.616;2023-04-05T06:52:43;17.02;;;8.30;;
64543;SDS011;50936;51.660;5.616;2023-04-05T06:55:10;16.17;;;8.93;;
64543;SDS011;50936;51.660;5.616;2023-04-05T06:57:37;17.73;;;9.45;;
64543;SDS011;50936;51.660;5.616;2023-04-05T07:00:03;23.85;;;9.27;;
64543;SDS011;50936;51.660;5.616;2023-04-05T07:02:36;19.00;;;8.75;;
64543;SDS011;50936;51.660;5.616;2023-04-05T07:05:04;15.88;;;8.05;;
64543;SDS011;50936;51.660;5.616;2023-04-05T07:07:31;18.00;;;8.07;;
64543;SDS011;50936;51.660;5.616;2023-04-05T07:09:58;14.40;;;7.40;;
64543;SDS011;50936;51.660;5.616;2023-04-05T07:12:25;17.27;;;8.82;;
64543;SDS011;50936;51.660;5.616;2023-04-05T07:14:52;15.75;;;8.57;;
64543;SDS011;50936;51.660;5.616;2023-04-05T07:17:19;16.65;;;8.18;;
64543;SDS011;50936;51.660;5.616;2023-04-05T07:19:47;13.45;;;8.13;;
64543;SDS011;50936;51.660;5.616;2023-04-05T07:22:14;18.52;;;8.45;;
64543;SDS011;50936;51.660;5.616;2023-04-05T07:24:41;16.33;;;8.00;;
64543;SDS011;50936;51.660;5.616;2023-04-05T07:27:08;16.52;;;8.63;;
64543;SDS011;50936;51.660;5.616;2023-04-05T07:29:34;15.05;;;8.18;;
64543;SDS011;50936;51.660;5.616;2023-04-05T07:32:06;13.27;;;7.90;;
64543;SDS011;50936;51.660;5.616;2023-04-05T07:34:33;14.23;;;8.13;;
64543;SDS011;50936;51.660;5.616;2023-04-05T07:37:01;14.70;;;7.95;;
64543;SDS011;50936;51.660;5.616;2023-04-05T07:39:31;14.38;;;8.35;;
64543;SDS011;50936;51.660;5.616;2023-04-05T07:41:59;13.65;;;7.55;;
64543;SDS011;50936;51.660;5.616;2023-04-05T07:44:26;14.15;;;7.57;;
64543;SDS011;50936;51.660;5.616;2023-04-05T07:46:52;13.57;;;7.00;;
64543;SDS011;50936;51.660;5.616;2023-04-05T07:49:23;11.77;;;6.80;;
64543;SDS011;50936;51.660;5.616;2023-04-05T07:51:54;13.45;;;6.88;;
64543;SDS011;50936;51.660;5.616;2023-04-05T07:54:22;14.02;;;7.07;;
64543;SDS011;50936;51.660;5.616;2023-04-05T07:56:49;16.08;;;8.25;;
64543;SDS011;50936;51.660;5.616;2023-04-05T07:59:17;12.82;;;6.90;;
64543;SDS011;50936;51.660;5.616;2023-04-05T08:01:44;11.30;;;7.00;;
64543;SDS011;50936;51.660;5.616;2023-04-05T08:04:11;13.30;;;7.00;;
64543;SDS011;50936;51.660;5.616;2023-04-05T08:06:38;14.30;;;6.85;;
64543;SDS011;50936;51.660;5.616;2023-04-05T08:09:05;11.63;;;6.57;;
64543;SDS011;50936;51.660;5.616;2023-04-05T08:11:34;16.17;;;7.30;;
64543;SDS011;50936;51.660;5.616;2023-04-05T08:14:01;14.82;;;7.55;;
64543;SDS011;50936;51.660;5.616;2023-04-05T08:16:28;18.08;;;8.00;;
64543;SDS011;50936;51.660;5.616;2023-04-05T08:18:55;14.52;;;7.38;;
64543;SDS011;50936;51.660;5.616;2023-04-05T08:21:22;12.15;;;7.05;;
64543;SDS011;50936;51.660;5.616;2023-04-05T08:23:49;14.05;;;7.18;;
64543;SDS011;50936;51.660;5.616;2023-04-05T08:26:16;10.68;;;6.72;;
64543;SDS011;50936;51.660;5.616;2023-04-05T08:28:45;14.10;;;6.93;;
64543;SDS011;50936;51.660;5.616;2023-04-05T08:31:11;18.52;;;6.95;;
64543;SDS011;50936;51.660;5.616;2023-04-05T08:33:39;13.57;;;6.93;;
64543;SDS011;50936;51.660;5.616;2023-04-05T08:36:06;12.13;;;7.25;;
64543;SDS011;50936;51.660;5.616;2023-04-05T08:38:36;12.63;;;6.88;;
64543;SDS011;50936;51.660;5.616;2023-04-05T08:41:06;13.48;;;6.68;;
64543;SDS011;50936;51.660;5.616;2023-04-05T08:44:00;11.55;;;5.22;;
64543;SDS011;50936;51.660;5.616;2023-04-05T08:46:30;11.82;;;6.65;;
64543;SDS011;50936;51.660;5.616;2023-04-05T08:48:59;12.80;;;5.68;;
64543;SDS011;50936;51.660;5.616;2023-04-05T08:51:37;10.15;;;5.22;;
64543;SDS011;50936;51.660;5.616;2023-04-05T08:54:07;13.10;;;5.47;;
64543;SDS011;50936;51.660;5.616;2023-04-05T08:56:35;11.73;;;6.03;;
64543;SDS011;50936;51.660;5.616;2023-04-05T08:59:03;10.15;;;5.32;;
64543;SDS011;50936;51.660;5.616;2023-04-05T09:01:35;11.02;;;5.00;;
64543;SDS011;50936;51.660;5.616;2023-04-05T09:04:13;11.13;;;5.28;;
64543;SDS011;50936;51.660;5.616;2023-04-05T09:06:46;10.88;;;5.25;;
64543;SDS011;50936;51.660;5.616;2023-04-05T09:09:15;10.10;;;5.63;;
64543;SDS011;50936;51.660;5.616;2023-04-05T09:11:45;12.27;;;5.85;;
64543;SDS011;50936;51.660;5.616;2023-04-05T09:14:14;10.02;;;5.22;;
64543;SDS011;50936;51.660;5.616;2023-04-05T09:16:43;10.95;;;6.05;;
64543;SDS011;50936;51.660;5.616;2023-04-05T09:19:10;12.02;;;6.15;;
64543;SDS011;50936;51.660;5.616;2023-04-05T09:27:15;12.48;;;6.32;;
64543;SDS011;50936;51.660;5.616;2023-04-05T09:29:54;14.68;;;5.60;;
64543;SDS011;50936;51.660;5.616;2023-04-05T09:32:24;10.10;;;5.20;;
64543;SDS011;50936;51.660;5.616;2023-04-05T09:34:57;11.30;;;5.70;;
64543;SDS011;50936;51.660;5.616;2023-04-05T09:37:29;13.55;;;7.00;;
64543;SDS011;50936;51.660;5.616;2023-04-05T09:40:03;12.18;;;6.15;;
64543;SDS011;50936;51.660;5.616;2023-04-05T09:42:44;12.95;;;6.15;;
64543;SDS011;50936;51.660;5.616;2023-04-05T09:45:12;17.67;;;6.30;;
64543;SDS011;50936;51.660;5.616;2023-04-05T09:47:55;11.55;;;4.85;;
64543;SDS011;50936;51.660;5.616;2023-04-05T09:50:23;13.30;;;6.18;;
64543;SDS011;50936;51.660;5.616;2023-04-05T09:53:04;11.75;;;6.30;;
64543;SDS011;50936;51.660;5.616;2023-04-05T09:55:33;11.93;;;5.85;;
64543;SDS011;50936;51.660;5.616;2023-04-05T09:58:00;11.50;;;5.93;;
64543;SDS011;50936;51.660;5.616;2023-04-05T10:00:28;11.93;;;4.93;;
64543;SDS011;50936;51.660;5.616;2023-04-05T10:02:56;11.75;;;6.25;;
64543;SDS011;50936;51.660;5.616;2023-04-05T10:05:25;12.88;;;4.82;;
64543;SDS011;50936;51.660;5.616;2023-04-05T10:07:54;12.50;;;6.88;;
64543;SDS011;50936;51.660;5.616;2023-04-05T10:10:22;9.65;;;5.05;;
64543;SDS011;50936;51.660;5.616;2023-04-05T10:12:50;11.65;;;5.15;;
64543;SDS011;50936;51.660;5.616;2023-04-05T10:15:19;11.45;;;5.50;;
64543;SDS011;50936;51.660;5.616;2023-04-05T10:20:26;11.75;;;5.82;;
64543;SDS011;50936;51.660;5.616;2023-04-05T10:28:34;11.10;;;6.15;;
64543;SDS011;50936;51.660;5.616;2023-04-05T10:31:23;10.90;;;5.40;;
64543;SDS011;50936;51.660;5.616;2023-04-05T10:34:07;10.32;;;4.93;;
64543;SDS011;50936;51.660;5.616;2023-04-05T10:37:00;10.00;;;5.63;;
64543;SDS011;50936;51.660;5.616;2023-04-05T10:39:28;11.20;;;5.82;;
64543;SDS011;50936;51.660;5.616;2023-04-05T10:42:14;8.70;;;4.95;;
64543;SDS011;50936;51.660;5.616;2023-04-05T10:45:06;13.43;;;6.30;;
64543;SDS011;50936;51.660;5.616;2023-04-05T10:47:38;9.70;;;5.35;;
64543;SDS011;50936;51.660;5.616;2023-04-05T10:50:32;11.65;;;6.00;;
64543;SDS011;50936;51.660;5.616;2023-04-05T10:53:02;10.55;;;6.03;;
64543;SDS011;50936;51.660;5.616;2023-04-05T10:55:30;12.93;;;5.85;;
64543;SDS011;50936;51.660;5.616;2023-04-05T10:57:59;11.15;;;5.55;;
64543;SDS011;50936;51.660;5.616;2023-04-05T11:00:28;19.38;;;6.22;;
64543;SDS011;50936;51.660;5.616;2023-04-05T11:02:55;12.52;;;6.65;;
64543;SDS011;50936;51.660;5.616;2023-04-05T11:05:32;10.80;;;5.70;;
64543;SDS011;50936;51.660;5.616;2023-04-05T11:08:06;8.65;;;4.40;;
64543;SDS011;50936;51.660;5.616;2023-04-05T11:10:37;10.73;;;5.55;;
64543;SDS011;50936;51.660;5.616;2023-04-05T11:13:06;10.30;;;5.63;;
64543;SDS011;50936;51.660;5.616;2023-04-05T11:15:34;11.30;;;5.55;;
64543;SDS011;50936;51.660;5.616;2023-04-05T11:18:03;8.52;;;5.78;;
64543;SDS011;50936;51.660;5.616;2023-04-05T11:20:47;8.93;;;5.30;;
64543;SDS011;50936;51.660;5.616;2023-04-05T11:23:32;12.50;;;5.63;;
64543;SDS011;50936;51.660;5.616;2023-04-05T11:26:32;10.35;;;5.65;;
64543;SDS011;50936;51.660;5.616;2023-04-05T11:32:15;9.98;;;5.47;;
64543;SDS011;50936;51.660;5.616;2023-04-05T11:34:42;10.55;;;5.93;;
64543;SDS011;50936;51.660;5.616;2023-04-05T11:37:10;9.30;;;5.35;;
64543;SDS011;50936;51.660;5.616;2023-04-05T11:39:40;8.70;;;5.00;;
64543;SDS011;50936;51.660;5.616;2023-04-05T11:42:09;12.05;;;5.38;;
64543;SDS011;50936;51.660;5.616;2023-04-05T11:44:39;11.90;;;5.60;;
64543;SDS011;50936;51.660;5.616;2023-04-05T11:47:11;11.77;;;5.60;;
64543;SDS011;50936;51.660;5.616;2023-04-05T11:49:39;9.20;;;5.60;;
64543;SDS011;50936;51.660;5.616;2023-04-05T11:54:41;11.88;;;5.70;;
64543;SDS011;50936;51.660;5.616;2023-04-05T11:57:13;10.05;;;5.97;;
64543;SDS011;50936;51.660;5.616;2023-04-05T11:59:49;9.10;;;5.35;;
64543;SDS011;50936;51.660;5.616;2023-04-05T12:02:18;11.10;;;5.57;;
64543;SDS011;50936;51.660;5.616;2023-04-05T12:04:56;9.88;;;5.82;;
64543;SDS011;50936;51.660;5.616;2023-04-05T12:07:27;10.98;;;5.68;;
64543;SDS011;50936;51.660;5.616;2023-04-05T12:15:01;11.57;;;5.47;;
64543;SDS011;50936;51.660;5.616;2023-04-05T12:18:03;10.27;;;5.57;;
64543;SDS011;50936;51.660;5.616;2023-04-05T12:20:23;8.95;;;5.20;;
64543;SDS011;50936;51.660;5.616;2023-04-05T12:22:52;9.52;;;5.22;;
64543;SDS011;50936;51.660;5.616;2023-04-05T12:25:22;11.55;;;5.72;;
64543;SDS011;50936;51.660;5.616;2023-04-05T12:27:51;10.55;;;5.70;;
64543;SDS011;50936;51.660;5.616;2023-04-05T12:30:19;8.88;;;4.82;;
64543;SDS011;50936;51.660;5.616;2023-04-05T12:32:55;12.93;;;5.60;;
64543;SDS011;50936;51.660;5.616;2023-04-05T12:35:23;10.25;;;5.32;;
64543;SDS011;50936;51.660;5.616;2023-04-05T12:37:58;8.68;;;5.13;;
64543;SDS011;50936;51.660;5.616;2023-04-05T12:40:28;7.75;;;4.47;;
64543;SDS011;50936;51.660;5.616;2023-04-05T12:43:03;10.13;;;5.38;;
64543;SDS011;50936;51.660;5.616;2023-04-05T12:45:32;10.27;;;5.65;;
64543;SDS011;50936;51.660;5.616;2023-04-05T12:48:07;10.10;;;5.53;;
64543;SDS011;50936;51.660;5.616;2023-04-05T12:50:47;10.88;;;5.68;;
64543;SDS011;50936;51.660;5.616;2023-04-05T12:53:20;10.77;;;6.30;;
64543;SDS011;50936;51.660;5.616;2023-04-05T12:55:51;9.57;;;5.70;;
64543;SDS011;50936;51.660;5.616;2023-04-05T12:58:20;10.35;;;5.95;;
64543;SDS011;50936;51.660;5.616;2023-04-05T13:00:57;10.82;;;5.93;;
64543;SDS011;50936;51.660;5.616;2023-04-05T13:03:26;13.02;;;6.25;;
64543;SDS011;50936;51.660;5.616;2023-04-05T13:05:53;12.85;;;5.50;;
64543;SDS011;50936;51.660;5.616;2023-04-05T13:08:20;9.63;;;5.25;;
64543;SDS011;50936;51.660;5.616;2023-04-05T13:10:47;10.13;;;5.97;;
64543;SDS011;50936;51.660;5.616;2023-04-05T13:13:16;8.52;;;4.55;;
64543;SDS011;50936;51.660;5.616;2023-04-05T13:15:45;9.60;;;5.90;;
64543;SDS011;50936;51.660;5.616;2023-04-05T13:18:15;10.50;;;5.72;;
64543;SDS011;50936;51.660;5.616;2023-04-05T13:20:42;9.68;;;5.25;;
64543;SDS011;50936;51.660;5.616;2023-04-05T13:23:10;8.82;;;5.53;;
64543;SDS011;50936;51.660;5.616;2023-04-05T13:25:38;13.18;;;5.85;;
64543;SDS011;50936;51.660;5.616;2023-04-05T13:28:07;11.10;;;5.72;;
64543;SDS011;50936;51.660;5.616;2023-04-05T13:30:35;12.38;;;6.38;;
64543;SDS011;50936;51.660;5.616;2023-04-05T13:33:03;12.13;;;5.70;;
64543;SDS011;50936;51.660;5.616;2023-04-05T13:35:30;11.25;;;4.93;;
64543;SDS011;50936;51.660;5.616;2023-04-05T13:37:58;11.02;;;5.85;;
64543;SDS011;50936;51.660;5.616;2023-04-05T13:40:30;12.23;;;5.63;;
64543;SDS011;50936;51.660;5.616;2023-04-05T13:42:57;9.95;;;5.07;;
64543;SDS011;50936;51.660;5.616;2023-04-05T13:45:24;12.82;;;5.63;;
64543;SDS011;50936;51.660;5.616;2023-04-05T13:47:53;10.60;;;6.10;;
64543;SDS011;50936;51.660;5.616;2023-04-05T13:50:21;12.48;;;6.47;;
64543;SDS011;50936;51.660;5.616;2023-04-05T13:52:48;10.73;;;5.90;;
64543;SDS011;50936;51.660;5.616;2023-04-05T13:55:17;12.15;;;5.95;;
64543;SDS011;50936;51.660;5.616;2023-04-05T13:57:44;12.93;;;6.13;;
64543;SDS011;50936;51.660;5.616;2023-04-05T14:00:11;9.90;;;4.78;;
64543;SDS011;50936;51.660;5.616;2023-04-05T14:02:39;9.07;;;5.50;;
64543;SDS011;50936;51.660;5.616;2023-04-05T14:05:07;13.93;;;6.07;;
64543;SDS011;50936;51.660;5.616;2023-04-05T14:07:34;12.73;;;6.43;;
64543;SDS011;50936;51.660;5.616;2023-04-05T14:10:02;13.27;;;6.97;;
64543;SDS011;50936;51.660;5.616;2023-04-05T14:12:32;10.15;;;6.18;;
64543;SDS011;50936;51.660;5.616;2023-04-05T14:14:59;9.75;;;6.18;;
64543;SDS011;50936;51.660;5.616;2023-04-05T14:17:26;10.93;;;6.93;;
64543;SDS011;50936;51.660;5.616;2023-04-05T14:19:53;11.43;;;5.60;;
64543;SDS011;50936;51.660;5.616;2023-04-05T14:22:20;9.52;;;4.90;;
64543;SDS011;50936;51.660;5.616;2023-04-05T14:24:48;12.30;;;6.70;;
64543;SDS011;50936;51.660;5.616;2023-04-05T14:27:15;13.43;;;6.07;;
64543;SDS011;50936;51.660;5.616;2023-04-05T14:29:42;10.93;;;6.32;;
64543;SDS011;50936;51.660;5.616;2023-04-05T14:32:11;12.25;;;6.80;;
64543;SDS011;50936;51.660;5.616;2023-04-05T14:34:38;11.77;;;5.55;;
64543;SDS011;50936;51.660;5.616;2023-04-05T14:37:05;11.70;;;6.35;;
64543;SDS011;50936;51.660;5.616;2023-04-05T14:39:33;16.38;;;6.70;;
64543;SDS011;50936;51.660;5.616;2023-04-05T14:42:00;11.30;;;6.15;;
64543;SDS011;50936;51.660;5.616;2023-04-05T14:44:27;10.40;;;6.10;;
64543;SDS011;50936;51.660;5.616;2023-04-05T14:46:54;13.32;;;6.95;;
64543;SDS011;50936;51.660;5.616;2023-04-05T14:49:21;12.57;;;6.72;;
64543;SDS011;50936;51.660;5.616;2023-04-05T14:51:48;11.38;;;6.32;;
64543;SDS011;50936;51.660;5.616;2023-04-05T14:54:16;11.48;;;6.47;;
64543;SDS011;50936;51.660;5.616;2023-04-05T14:56:43;14.60;;;6.70;;
64543;SDS011;50936;51.660;5.616;2023-04-05T14:59:10;10.63;;;5.40;;
64543;SDS011;50936;51.660;5.616;2023-04-05T15:01:37;11.32;;;6.90;;
64543;SDS011;50936;51.660;5.616;2023-04-05T15:04:07;9.45;;;4.28;;
64543;SDS011;50936;51.660;5.616;2023-04-05T15:06:34;11.27;;;6.45;;
64543;SDS011;50936;51.660;5.616;2023-04-05T15:09:01;13.25;;;7.13;;
64543;SDS011;50936;51.660;5.616;2023-04-05T15:11:29;11.77;;;6.83;;
64543;SDS011;50936;51.660;5.616;2023-04-05T15:13:59;10.13;;;6.18;;
64543;SDS011;50936;51.660;5.616;2023-04-05T15:16:26;12.25;;;6.05;;
64543;SDS011;50936;51.660;5.616;2023-04-05T15:18:55;12.32;;;6.95;;
64543;SDS011;50936;51.660;5.616;2023-04-05T15:21:24;12.90;;;7.07;;
64543;SDS011;50936;51.660;5.616;2023-04-05T15:23:51;12.55;;;6.63;;
64543;SDS011;50936;51.660;5.616;2023-04-05T15:26:18;10.25;;;6.40;;